createdAt,value
2023-09-11T00:00:07.535Z,97.28
2023-09-11T00:03:09.612Z,97.60
2023-09-11T00:06:11.679Z,100.00
2023-09-11T00:09:13.759Z,99.85
2023-09-11T00:12:17.045Z,99.92
2023-09-11T00:15:19.073Z,99.35
2023-09-11T00:18:20.922Z,98.71
2023-09-11T00:21:24.335Z,98.33
2023-09-11T00:24:26.073Z,97.60
2023-09-11T00:27:27.960Z,97.96
2023-09-11T00:30:29.705Z,97.92
2023-09-11T00:33:31.566Z,97.67
2023-09-11T00:36:33.576Z,98.25
2023-09-11T00:39:35.349Z,98.10
2023-09-11T00:42:37.318Z,100.00
2023-09-11T00:45:39.810Z,100.00
2023-09-11T00:48:41.947Z,100.00
2023-09-11T00:51:43.993Z,100.00
2023-09-11T00:54:45.962Z,100.00
2023-09-11T00:57:47.779Z,100.00
2023-09-11T01:00:49.749Z,100.00
2023-09-11T01:03:51.998Z,100.00
2023-09-11T01:06:53.786Z,100.00
2023-09-11T01:09:55.664Z,100.00
2023-09-11T01:12:57.584Z,100.00
2023-09-11T01:16:11.455Z,99.98
2023-09-11T01:19:35.261Z,99.84
2023-09-11T01:23:09.390Z,99.43
2023-09-11T01:26:25.042Z,99.48
2023-09-11T01:29:28.145Z,99.17
2023-09-11T01:32:30.479Z,98.75
2023-09-11T01:35:32.582Z,98.53
2023-09-11T01:38:34.612Z,98.55
2023-09-11T01:41:39.482Z,99.20
2023-09-11T01:44:44.982Z,99.90
2023-09-11T01:47:48.535Z,99.87
2023-09-11T01:50:50.687Z,99.41
2023-09-11T01:53:52.997Z,100.00
2023-09-11T01:56:55.456Z,100.00
2023-09-11T01:59:57.341Z,100.00
2023-09-11T02:02:59.256Z,100.00
2023-09-11T02:06:01.118Z,100.00
2023-09-11T02:09:03.589Z,100.00
2023-09-11T02:12:05.692Z,100.00
2023-09-11T02:15:07.955Z,100.00
2023-09-11T02:18:09.857Z,100.00
2023-09-11T02:21:11.677Z,100.00
2023-09-11T02:24:13.596Z,100.00
2023-09-11T02:27:15.367Z,100.00
2023-09-11T02:30:17.592Z,100.00
2023-09-11T02:33:19.608Z,100.00
2023-09-11T02:36:21.591Z,100.00
2023-09-11T02:39:23.377Z,100.00
2023-09-11T02:42:25.210Z,100.00
2023-09-11T02:45:27.609Z,100.00
2023-09-11T02:48:29.549Z,100.00
2023-09-11T02:51:32.118Z,100.00
2023-09-11T02:54:33.913Z,100.00
2023-09-11T02:57:35.767Z,100.00
2023-09-11T03:00:37.913Z,100.00
2023-09-11T03:03:39.761Z,100.00
2023-09-11T03:06:41.566Z,100.00
2023-09-11T03:09:43.346Z,100.00
2023-09-11T03:12:45.221Z,100.00
2023-09-11T03:15:47.085Z,100.00
2023-09-11T03:18:48.882Z,100.00
2023-09-11T03:21:50.724Z,100.00
2023-09-11T03:24:52.514Z,100.00
2023-09-11T03:27:54.549Z,100.00
2023-09-11T03:30:56.983Z,100.00
2023-09-11T03:33:58.898Z,100.00
2023-09-11T03:37:00.673Z,100.00
2023-09-11T03:40:08.056Z,100.00
2023-09-11T03:43:09.797Z,100.00
2023-09-11T03:46:13.708Z,100.00
2023-09-11T03:49:15.679Z,100.00
2023-09-11T03:52:17.691Z,100.00
2023-09-11T03:55:19.620Z,100.00
2023-09-11T03:58:21.362Z,100.00
2023-09-11T04:01:23.082Z,100.00
2023-09-11T04:04:25.011Z,100.00
2023-09-11T04:07:27.018Z,100.00
2023-09-11T04:10:29.397Z,100.00
2023-09-11T04:13:31.113Z,100.00
2023-09-11T04:16:32.977Z,100.00
2023-09-11T04:19:34.798Z,100.00
2023-09-11T04:22:36.853Z,100.00
2023-09-11T04:25:38.739Z,100.00
2023-09-11T04:28:40.806Z,100.00
2023-09-11T04:31:42.972Z,100.00
2023-09-11T04:34:45.033Z,100.00
2023-09-11T04:37:47.184Z,100.00
2023-09-11T04:40:49.256Z,100.00
2023-09-11T04:43:51.090Z,100.00
2023-09-11T04:46:52.883Z,100.00
2023-09-11T04:49:54.596Z,100.00
2023-09-11T04:52:57.232Z,100.00
2023-09-11T04:55:59.053Z,99.90
2023-09-11T04:59:00.855Z,99.30
2023-09-11T05:02:02.644Z,99.96
2023-09-11T05:05:04.761Z,99.52
2023-09-11T05:08:07.313Z,99.21
2023-09-11T05:11:09.075Z,99.07
2023-09-11T05:14:10.845Z,98.48
2023-09-11T05:17:14.337Z,98.03
2023-09-11T05:20:16.082Z,94.61
2023-09-11T05:23:18.787Z,82.59
2023-09-11T05:26:22.107Z,78.38
2023-09-11T05:29:24.110Z,80.74
2023-09-11T05:32:26.490Z,82.12
2023-09-11T05:35:28.348Z,83.56
2023-09-11T05:38:30.627Z,85.01
2023-09-11T05:41:32.588Z,86.84
2023-09-11T05:44:34.510Z,89.31
2023-09-11T05:47:38.222Z,90.90
2023-09-11T05:50:40.292Z,91.08
2023-09-11T05:53:43.085Z,92.41
2023-09-11T05:56:44.920Z,92.16
2023-09-11T05:59:49.470Z,92.23
2023-09-11T06:02:51.513Z,92.23
2023-09-11T06:05:53.379Z,91.52
2023-09-11T06:08:56.706Z,91.78
2023-09-11T06:11:59.294Z,90.95
2023-09-11T06:15:01.695Z,90.78
2023-09-11T06:18:05.750Z,90.86
2023-09-11T06:21:07.674Z,90.21
2023-09-11T06:24:09.656Z,90.12
2023-09-11T06:27:11.753Z,89.48
2023-09-11T06:30:14.200Z,88.06
2023-09-11T06:33:16.140Z,86.60
2023-09-11T06:36:17.947Z,85.60
2023-09-11T06:39:22.825Z,84.95
2023-09-11T06:42:25.936Z,83.54
2023-09-11T06:45:27.874Z,82.54
2023-09-11T06:48:30.121Z,82.01
2023-09-11T06:51:32.017Z,81.99
2023-09-11T06:54:36.388Z,80.89
2023-09-11T06:57:42.725Z,78.47
2023-09-11T07:00:44.585Z,78.31
2023-09-11T07:03:47.321Z,77.22
2023-09-11T07:06:49.238Z,76.66
2023-09-11T07:09:52.343Z,75.32
2023-09-11T07:12:54.162Z,75.02
2023-09-11T07:16:00.288Z,73.18
2023-09-11T07:19:02.256Z,72.68
2023-09-11T07:22:04.326Z,70.84
2023-09-11T07:25:12.476Z,68.44
2023-09-11T07:28:15.358Z,67.52
2023-09-11T07:31:17.433Z,66.18
2023-09-11T07:34:19.287Z,65.87
2023-09-11T07:37:21.050Z,64.56
2023-09-11T07:40:22.948Z,62.66
2023-09-11T07:43:24.730Z,62.73
2023-09-11T07:46:26.576Z,59.93
2023-09-11T07:49:28.485Z,57.55
2023-09-11T07:52:30.294Z,59.37
2023-09-11T07:55:37.010Z,56.86
2023-09-11T07:58:39.644Z,58.26
2023-09-11T08:01:41.847Z,57.36
2023-09-11T08:04:43.719Z,51.84
2023-09-11T08:07:45.614Z,54.17
2023-09-11T08:10:47.343Z,53.69
2023-09-11T08:13:51.176Z,53.51
2023-09-11T08:16:53.019Z,51.03
2023-09-11T08:19:54.888Z,51.22
2023-09-11T08:22:58.733Z,51.19
2023-09-11T08:26:02.766Z,50.71
2023-09-11T08:29:04.934Z,49.91
2023-09-11T08:32:06.693Z,47.23
2023-09-11T08:35:09.205Z,48.82
2023-09-11T08:38:11.104Z,47.52
2023-09-11T08:41:14.036Z,47.67
2023-09-11T08:44:16.029Z,46.40
2023-09-11T08:47:19.693Z,46.45
2023-09-11T08:50:22.118Z,43.40
2023-09-11T08:53:24.380Z,45.61
2023-09-11T08:56:26.438Z,44.93
2023-09-11T08:59:30.124Z,44.52
2023-09-11T09:02:33.779Z,45.24
2023-09-11T09:05:36.938Z,45.11
2023-09-11T09:08:39.281Z,44.60
2023-09-11T09:11:49.068Z,44.16
2023-09-11T09:14:50.959Z,43.99
2023-09-11T09:17:52.888Z,43.52
2023-09-11T09:20:56.499Z,43.32
2023-09-11T09:24:09.490Z,42.34
2023-09-11T09:27:11.380Z,43.66
2023-09-11T09:30:31.724Z,42.55
2023-09-11T09:33:33.850Z,41.38
2023-09-11T09:36:35.793Z,40.91
2023-09-11T09:39:41.753Z,40.49
2023-09-11T09:42:43.733Z,41.60
2023-09-11T09:45:45.823Z,41.43
2023-09-11T09:48:47.748Z,40.51
2023-09-11T09:51:50.001Z,40.81
2023-09-11T09:55:00.244Z,38.66
2023-09-11T09:58:02.034Z,37.88
2023-09-11T10:01:03.897Z,38.35
2023-09-11T10:04:16.562Z,39.06
2023-09-11T10:07:36.518Z,38.42
2023-09-11T10:10:38.298Z,38.27
2023-09-11T10:13:44.394Z,37.18
2023-09-11T10:16:47.355Z,35.99
2023-09-11T10:19:50.017Z,36.16
2023-09-11T10:22:56.292Z,35.45
2023-09-11T10:26:00.357Z,34.08
2023-09-11T10:29:05.130Z,34.84
2023-09-11T10:32:11.478Z,35.11
2023-09-11T10:35:13.376Z,35.35
2023-09-11T10:38:16.528Z,34.54
2023-09-11T10:41:18.411Z,34.64
2023-09-11T10:44:20.241Z,34.36
2023-09-11T10:47:23.565Z,34.70
2023-09-11T10:50:45.612Z,34.46
2023-09-11T10:53:51.600Z,34.08
2023-09-11T10:56:53.560Z,34.34
2023-09-11T10:59:55.589Z,34.21
2023-09-11T11:02:58.444Z,34.08
2023-09-11T11:06:01.724Z,34.10
2023-09-11T11:09:03.845Z,34.02
2023-09-11T11:12:09.511Z,34.71
2023-09-11T11:15:29.901Z,34.49
2023-09-11T11:18:32.080Z,33.43
2023-09-11T11:21:41.058Z,34.22
2023-09-11T11:24:58.931Z,34.12
2023-09-11T11:28:23.142Z,33.42
2023-09-11T11:31:25.885Z,33.77
2023-09-11T11:34:30.940Z,33.67
2023-09-11T11:37:33.675Z,33.61
2023-09-11T11:40:36.417Z,34.06
2023-09-11T11:43:38.274Z,34.01
2023-09-11T11:46:40.677Z,33.98
2023-09-11T11:49:42.695Z,33.56
2023-09-11T11:52:47.750Z,33.30
2023-09-11T11:55:51.007Z,33.87
2023-09-11T11:58:56.924Z,34.08
2023-09-11T12:01:58.964Z,33.85
2023-09-11T12:05:01.138Z,34.29
2023-09-11T12:08:03.952Z,33.57
2023-09-11T12:11:08.800Z,33.98
2023-09-11T12:14:17.161Z,34.14
2023-09-11T12:17:18.980Z,33.95
2023-09-11T12:20:24.817Z,33.78
2023-09-11T12:23:26.980Z,34.08
2023-09-11T12:26:29.939Z,34.09
2023-09-11T12:29:33.553Z,33.92
2023-09-11T12:32:35.395Z,33.40
2023-09-11T12:35:37.572Z,33.53
2023-09-11T12:38:39.490Z,33.51
2023-09-11T12:41:41.661Z,33.00
2023-09-11T12:44:43.578Z,33.40
2023-09-11T12:47:45.513Z,33.75
2023-09-11T12:50:47.402Z,32.81
2023-09-11T12:53:49.801Z,33.66
2023-09-11T12:56:51.631Z,33.17
2023-09-11T12:59:53.461Z,32.28
2023-09-11T13:03:07.563Z,32.77
2023-09-11T13:06:09.597Z,33.80
2023-09-11T13:09:11.617Z,32.47
2023-09-11T13:12:13.604Z,33.39
2023-09-11T13:15:16.308Z,33.25
2023-09-11T13:18:18.359Z,33.28
2023-09-11T13:21:20.329Z,33.69
2023-09-11T13:24:22.288Z,34.05
2023-09-11T13:27:24.175Z,33.74
2023-09-11T13:30:26.051Z,33.00
2023-09-11T13:33:28.674Z,33.37
2023-09-11T13:36:30.510Z,33.34
2023-09-11T13:39:32.296Z,33.25
2023-09-11T13:42:34.482Z,33.51
2023-09-11T13:45:36.273Z,33.67
2023-09-11T13:48:38.255Z,33.97
2023-09-11T13:51:40.134Z,33.27
2023-09-11T13:54:42.129Z,33.47
2023-09-11T13:57:43.808Z,33.94
2023-09-11T14:00:45.746Z,33.92
2023-09-11T14:03:47.634Z,34.15
2023-09-11T14:06:49.581Z,33.09
2023-09-11T14:09:51.377Z,33.79
2023-09-11T14:12:53.105Z,33.80
2023-09-11T14:15:55.092Z,33.93
2023-09-11T14:18:57.041Z,34.68
2023-09-11T14:21:58.889Z,34.15
2023-09-11T14:25:00.771Z,34.43
2023-09-11T14:28:02.936Z,34.06
2023-09-11T14:31:04.825Z,33.81
2023-09-11T14:34:06.647Z,33.71
2023-09-11T14:40:14.935Z,34.62
2023-09-11T14:43:16.649Z,34.65
2023-09-11T14:46:18.718Z,34.73
2023-09-11T14:49:20.530Z,34.54
2023-09-11T14:52:22.432Z,34.61
2023-09-11T14:55:24.245Z,35.03
2023-09-11T14:58:26.025Z,35.27
2023-09-11T15:01:27.884Z,35.08
2023-09-11T15:04:46.698Z,35.04
2023-09-11T15:07:51.079Z,34.59
2023-09-11T15:11:00.317Z,35.03
2023-09-11T15:14:03.273Z,35.39
2023-09-11T15:17:05.711Z,35.81
2023-09-11T15:20:07.935Z,35.81
2023-09-11T15:23:09.786Z,35.59
2023-09-11T15:26:11.608Z,36.16
2023-09-11T15:29:13.378Z,36.46
2023-09-11T15:32:15.207Z,36.99
2023-09-11T15:35:17.417Z,37.53
2023-09-11T15:38:19.717Z,38.38
2023-09-11T15:41:21.692Z,39.17
2023-09-11T15:44:23.534Z,39.10
2023-09-11T15:47:25.588Z,39.12
2023-09-11T15:50:27.432Z,39.82
2023-09-11T15:53:29.674Z,40.23
2023-09-11T15:56:31.883Z,40.44
2023-09-11T15:59:33.728Z,40.63
2023-09-11T16:02:35.640Z,41.27
2023-09-11T16:05:37.715Z,42.01
2023-09-11T16:08:39.823Z,43.13
2023-09-11T16:11:41.914Z,43.84
2023-09-11T16:14:43.785Z,44.24
2023-09-11T16:17:46.443Z,45.12
2023-09-11T16:20:49.226Z,45.36
2023-09-11T16:23:51.014Z,46.19
2023-09-11T16:26:52.983Z,46.73
2023-09-11T16:29:54.968Z,47.81
2023-09-11T16:32:59.015Z,48.45
2023-09-11T16:36:01.091Z,49.03
2023-09-11T16:39:03.907Z,49.43
2023-09-11T16:42:09.098Z,50.00
2023-09-11T16:45:12.397Z,50.47
2023-09-11T16:48:15.111Z,50.61
2023-09-11T16:51:17.020Z,51.32
2023-09-11T16:54:18.929Z,52.02
2023-09-11T16:57:20.835Z,53.03
2023-09-11T17:00:24.462Z,53.46
2023-09-11T17:03:26.335Z,54.05
2023-09-11T17:06:28.334Z,54.05
2023-09-11T17:09:30.161Z,54.54
2023-09-11T17:12:32.456Z,54.45
2023-09-11T17:15:34.196Z,54.86
2023-09-11T17:18:36.154Z,56.39
2023-09-11T17:21:38.039Z,56.76
2023-09-11T17:24:40.084Z,57.62
2023-09-11T17:27:41.906Z,58.30
2023-09-11T17:30:43.718Z,60.00
2023-09-11T17:33:45.615Z,62.42
2023-09-11T17:36:47.691Z,62.07
2023-09-11T17:39:49.994Z,62.30
2023-09-11T17:42:52.043Z,63.20
2023-09-11T17:45:54.153Z,65.10
2023-09-11T17:48:55.986Z,64.16
2023-09-11T17:51:57.858Z,63.83
2023-09-11T17:54:59.647Z,64.01
2023-09-11T17:58:01.391Z,64.61
2023-09-11T18:01:03.112Z,65.50
2023-09-11T18:04:05.405Z,66.19
2023-09-11T18:07:08.232Z,66.79
2023-09-11T18:10:10.370Z,67.19
2023-09-11T18:13:12.653Z,70.71
2023-09-11T18:16:14.511Z,70.83
2023-09-11T18:19:16.347Z,69.88
2023-09-11T18:22:18.348Z,70.25
2023-09-11T18:25:21.604Z,70.81
2023-09-11T18:28:23.633Z,70.70
2023-09-11T18:31:25.454Z,71.23
2023-09-11T18:34:29.515Z,71.26
2023-09-11T18:37:32.738Z,71.45
2023-09-11T18:40:34.703Z,71.65
2023-09-11T18:43:36.678Z,72.32
2023-09-11T18:46:41.697Z,72.83
2023-09-11T18:49:43.773Z,73.23
2023-09-11T18:52:46.722Z,73.55
2023-09-11T18:55:49.844Z,74.46
2023-09-11T18:58:52.960Z,74.66
2023-09-11T19:02:02.604Z,74.55
2023-09-11T19:05:05.006Z,74.88
2023-09-11T19:08:08.423Z,75.35
2023-09-11T19:11:12.369Z,75.79
2023-09-11T19:14:14.311Z,75.44
2023-09-11T19:17:17.261Z,75.72
2023-09-11T19:20:19.140Z,75.82
2023-09-11T19:23:20.893Z,76.44
2023-09-11T19:26:22.647Z,76.93
2023-09-11T19:29:24.507Z,77.08
2023-09-11T19:32:26.230Z,77.19
2023-09-11T19:35:28.242Z,76.92
2023-09-11T19:38:30.521Z,77.50
2023-09-11T19:41:32.387Z,77.24
2023-09-11T19:44:34.377Z,78.59
2023-09-11T19:47:36.237Z,78.42
2023-09-11T19:50:38.004Z,79.30
2023-09-11T19:53:39.737Z,80.18
2023-09-11T19:56:41.506Z,79.99
2023-09-11T19:59:43.339Z,80.61
2023-09-11T20:02:45.312Z,80.48
2023-09-11T20:05:47.549Z,81.08
2023-09-11T20:08:49.374Z,80.86
2023-09-11T20:11:51.254Z,80.89
2023-09-11T20:14:53.234Z,81.16
2023-09-11T20:17:55.061Z,81.62
2023-09-11T20:20:56.917Z,81.56
2023-09-11T20:23:58.775Z,81.45
2023-09-11T20:27:00.754Z,81.71
2023-09-11T20:30:02.809Z,81.98
2023-09-11T20:33:05.009Z,82.17
2023-09-11T20:36:14.231Z,82.44
2023-09-11T20:39:16.142Z,83.06
2023-09-11T20:42:17.900Z,82.83
2023-09-11T20:45:19.701Z,83.14
2023-09-11T20:48:21.639Z,83.60
2023-09-11T20:51:23.710Z,83.59
2023-09-11T20:54:26.787Z,83.93
2023-09-11T20:57:28.634Z,85.63
2023-09-11T21:00:30.434Z,85.57
2023-09-11T21:03:33.241Z,85.50
2023-09-11T21:06:35.425Z,85.79
2023-09-11T21:09:37.252Z,85.87
2023-09-11T21:12:52.380Z,85.67
2023-09-11T21:15:54.205Z,86.44
2023-09-11T21:18:56.244Z,86.17
2023-09-11T21:21:58.081Z,86.61
2023-09-11T21:24:59.826Z,86.38
2023-09-11T21:28:01.883Z,86.45
2023-09-11T21:31:04.136Z,86.63
2023-09-11T21:34:06.223Z,86.43
2023-09-11T21:37:08.080Z,87.11
2023-09-11T21:40:10.669Z,86.93
2023-09-11T21:43:13.032Z,87.48
2023-09-11T21:46:17.205Z,87.65
2023-09-11T21:49:19.171Z,87.52
2023-09-11T21:52:21.384Z,88.04
2023-09-11T21:55:23.224Z,87.97
2023-09-11T21:58:24.992Z,87.89
2023-09-11T22:01:27.165Z,87.90
2023-09-11T22:04:29.068Z,87.88
2023-09-11T22:07:30.866Z,87.89
2023-09-11T22:10:32.549Z,88.17
2023-09-11T22:13:34.292Z,88.95
2023-09-11T22:16:36.069Z,89.16
2023-09-11T22:19:37.796Z,89.75
2023-09-11T22:22:39.568Z,89.72
2023-09-11T22:25:41.379Z,90.06
2023-09-11T22:28:43.120Z,90.99
2023-09-11T22:31:44.963Z,91.22
2023-09-11T22:34:47.004Z,91.05
2023-09-11T22:37:48.891Z,91.51
2023-09-11T22:40:50.669Z,92.62
2023-09-11T22:43:52.493Z,92.80
2023-09-11T22:46:54.238Z,93.07
2023-09-11T22:49:56.517Z,93.12
2023-09-11T22:52:58.568Z,92.52
2023-09-11T22:56:03.515Z,92.90
2023-09-11T22:59:05.341Z,93.18
2023-09-11T23:02:07.147Z,93.32
2023-09-11T23:05:09.984Z,94.12
2023-09-11T23:08:11.798Z,93.41
2023-09-11T23:11:13.595Z,94.15
2023-09-11T23:14:15.349Z,94.00
2023-09-11T23:17:17.222Z,94.09
2023-09-11T23:20:19.018Z,94.42
2023-09-11T23:23:20.848Z,94.57
2023-09-11T23:26:22.796Z,95.47
2023-09-11T23:29:24.536Z,95.02
2023-09-11T23:32:26.334Z,94.98
2023-09-11T23:35:28.205Z,94.97
2023-09-11T23:38:30.100Z,95.12
2023-09-11T23:41:31.971Z,95.13
2023-09-11T23:44:33.774Z,95.14
2023-09-11T23:47:35.532Z,95.31
2023-09-11T23:50:37.293Z,95.43
2023-09-11T23:53:39.225Z,95.59
2023-09-11T23:56:43.481Z,95.33
2023-09-11T23:59:45.416Z,95.30
